Emmen Airport LSME

Flugplatz Daten

Name: Emmen Airport

Ident: LSME

Lat: 47,0923996

Long: 8,305120468

Platzhöhe: 1400 ft

IataCode:

City:

Metar

2022/08/10 20:20
LSME 102020Z AUTO 00000KT 9999NDV NCD 21/11 Q1020 RMK

Taf

2022/08/10 17:00
TAF LSME 101625Z 1017/1123 03006KT CAVOK
Gewünschte Webcam nicht vorhanden? Dann fügen Sie eine hinzu. Sie wird dann so schnell wie möglich freigeschaltet
Url: Title: